createdAt,value
2018-06-02T00:00:41.522Z,23.35
2018-06-02T00:01:51.606Z,23.5
2018-06-02T00:03:01.725Z,23.45
2018-06-02T00:04:11.804Z,23.47
2018-06-02T00:05:21.873Z,23.5
2018-06-02T00:06:31.688Z,23.44
2018-06-02T00:07:41.591Z,23.48
2018-06-02T00:08:51.679Z,23.48
2018-06-02T00:10:01.752Z,23.52
2018-06-02T00:11:11.574Z,23.48
2018-06-02T00:12:20.860Z,23.44
2018-06-02T00:13:30.948Z,23.47
2018-06-02T00:14:40.758Z,23.45
2018-06-02T00:15:50.841Z,23.55
2018-06-02T00:17:00.921Z,23.5
2018-06-02T00:18:11.000Z,23.5
2018-06-02T00:19:21.117Z,23.45
2018-06-02T00:20:30.951Z,23.52
2018-06-02T00:21:41.034Z,23.52
2018-06-02T00:22:51.115Z,23.59
2018-06-02T00:24:01.213Z,23.48
2018-06-02T00:25:11.308Z,23.59
2018-06-02T00:26:20.876Z,23.5
2018-06-02T00:27:30.966Z,23.59
2018-06-02T00:28:41.039Z,23.6
2018-06-02T00:29:50.855Z,23.62
2018-06-02T00:31:00.947Z,23.6
2018-06-02T00:32:11.029Z,23.67
2018-06-02T00:33:21.116Z,23.62
2018-06-02T00:34:31.190Z,23.57
2018-06-02T00:35:41.272Z,23.66
2018-06-02T00:36:51.355Z,23.55
2018-06-02T00:38:01.179Z,23.59
2018-06-02T00:39:11.018Z,23.55
2018-06-02T00:40:21.096Z,23.63
2018-06-02T00:41:31.178Z,23.5
2018-06-02T00:42:41.256Z,23.53
2018-06-02T00:43:51.088Z,23.53
2018-06-02T00:45:01.222Z,23.5
2018-06-02T00:46:11.304Z,23.57
2018-06-02T00:47:21.114Z,23.38
2018-06-02T00:48:31.264Z,23.41
2018-06-02T00:49:41.079Z,23.4
2018-06-02T00:50:50.919Z,23.32
2018-06-02T00:52:00.997Z,23.34
2018-06-02T00:53:11.095Z,23.22
2018-06-02T00:54:21.195Z,23.22
2018-06-02T00:55:31.019Z,23.18
2018-06-02T00:56:41.097Z,23.15
2018-06-02T00:57:50.905Z,23.12
2018-06-02T00:59:00.711Z,23.15
2018-06-02T01:00:10.795Z,23.12
2018-06-02T01:01:20.884Z,23.1
2018-06-02T01:02:30.970Z,23.1
2018-06-02T01:03:41.059Z,23.03
2018-06-02T01:04:51.141Z,22.94
2018-06-02T01:06:01.287Z,22.99
2018-06-02T01:07:11.383Z,22.91
2018-06-02T01:08:21.469Z,22.94
2018-06-02T01:09:31.557Z,22.92
2018-06-02T01:10:41.621Z,22.89
2018-06-02T01:11:51.429Z,22.88
2018-06-02T01:13:01.246Z,22.88
2018-06-02T01:14:11.329Z,22.88
2018-06-02T01:15:21.418Z,22.92
2018-06-02T01:16:31.492Z,22.92
2018-06-02T01:17:41.836Z,22.88
2018-06-02T01:18:51.650Z,22.86
2018-06-02T01:20:01.726Z,22.81
2018-06-02T01:21:11.554Z,22.85
2018-06-02T01:22:21.625Z,22.76
2018-06-02T01:23:31.695Z,22.84
2018-06-02T01:24:41.769Z,22.81
2018-06-02T01:25:51.876Z,22.81
2018-06-02T01:27:01.957Z,22.76
2018-06-02T01:28:12.049Z,22.78
2018-06-02T01:29:22.151Z,22.79
2018-06-02T01:30:32.250Z,22.76
2018-06-02T01:31:41.530Z,22.76
2018-06-02T01:32:51.607Z,22.73
2018-06-02T01:34:01.422Z,22.79
2018-06-02T01:35:11.501Z,22.79
2018-06-02T01:36:21.584Z,22.81
2018-06-02T01:37:31.663Z,22.82
2018-06-02T01:38:41.746Z,22.84
2018-06-02T01:39:51.565Z,22.86
2018-06-02T01:41:01.665Z,22.82
2018-06-02T01:42:11.764Z,22.91
2018-06-02T01:43:21.605Z,22.88
2018-06-02T01:44:31.682Z,22.88
2018-06-02T01:45:41.761Z,22.85
2018-06-02T01:46:51.859Z,22.88
2018-06-02T01:48:01.932Z,22.88
2018-06-02T01:49:12.011Z,22.91
2018-06-02T01:50:22.081Z,22.81
2018-06-02T01:51:32.160Z,22.88
2018-06-02T01:52:42.242Z,22.88
2018-06-02T01:53:52.318Z,22.86
2018-06-02T01:55:02.173Z,22.84
2018-06-02T01:56:12.255Z,22.92
2018-06-02T01:57:22.333Z,22.91
2018-06-02T01:58:32.456Z,22.89
2018-06-02T01:59:42.543Z,22.86
2018-06-02T02:00:52.626Z,22.84
2018-06-02T02:02:02.695Z,22.92
2018-06-02T02:03:12.773Z,22.91
2018-06-02T02:04:22.912Z,23.03
2018-06-02T02:05:32.769Z,22.92
2018-06-02T02:06:42.846Z,22.91
2018-06-02T02:07:52.930Z,22.91
2018-06-02T02:09:02.742Z,22.97
2018-06-02T02:10:12.826Z,23.04
2018-06-02T02:11:22.890Z,23.07
2018-06-02T02:12:32.985Z,23.06
2018-06-02T02:13:43.084Z,23.03
2018-06-02T02:14:53.153Z,23.12
2018-06-02T02:16:03.251Z,23.07
2018-06-02T02:17:13.069Z,23.04
2018-06-02T02:18:22.906Z,23
2018-06-02T02:19:32.992Z,23.01
2018-06-02T02:20:43.074Z,23.07
2018-06-02T02:21:53.184Z,23.04
2018-06-02T02:23:03.273Z,23.04
2018-06-02T02:24:13.360Z,22.99
2018-06-02T02:25:23.449Z,23.1
2018-06-02T02:26:33.283Z,23.06
2018-06-02T02:27:43.415Z,23.06
2018-06-02T02:28:53.244Z,23.14
2018-06-02T02:30:03.331Z,23.07
2018-06-02T02:31:13.407Z,23.06
2018-06-02T02:32:23.507Z,23.04
2018-06-02T02:33:33.374Z,23.06
2018-06-02T02:34:43.463Z,23.01
2018-06-02T02:35:53.613Z,23.1
2018-06-02T02:37:03.420Z,23.07
2018-06-02T02:38:13.510Z,22.97
2018-06-02T02:39:23.598Z,23.07
2018-06-02T02:40:33.685Z,23.09
2018-06-02T02:41:43.509Z,23.06
2018-06-02T02:42:53.597Z,23.09
2018-06-02T02:44:03.676Z,23.06
2018-06-02T02:45:13.251Z,22.99
2018-06-02T02:46:23.326Z,23.04
2018-06-02T02:47:33.169Z,23.03
2018-06-02T02:48:43.368Z,23.01
2018-06-02T02:49:53.445Z,22.92
2018-06-02T02:51:03.529Z,22.91
2018-06-02T02:52:13.619Z,23.01
2018-06-02T02:53:23.467Z,23.01
2018-06-02T02:54:33.281Z,22.94
2018-06-02T02:55:43.361Z,22.92
2018-06-02T02:56:53.452Z,22.99
2018-06-02T02:58:03.269Z,22.94
2018-06-02T02:59:13.356Z,22.99
2018-06-02T03:00:23.453Z,22.91
2018-06-02T03:01:33.563Z,22.92
2018-06-02T03:02:43.664Z,22.91
2018-06-02T03:35:10.594Z,21
2018-06-02T03:36:20.672Z,20.96
2018-06-02T03:37:30.755Z,20.94
2018-06-02T03:38:40.838Z,20.91
2018-06-02T03:39:50.925Z,21.11
2018-06-02T03:41:00.812Z,21.13
2018-06-02T03:42:10.909Z,21.18
2018-06-02T03:43:20.986Z,21.37
2018-06-02T03:44:31.077Z,21.43
2018-06-02T03:45:41.153Z,21.52
2018-06-02T03:46:51.263Z,21.67
2018-06-02T03:48:01.355Z,21.71
2018-06-02T03:49:11.155Z,21.9
2018-06-02T03:50:20.977Z,21.94
2018-06-02T03:51:30.786Z,22.15
2018-06-02T03:52:40.874Z,22.3
2018-06-02T03:53:50.950Z,22.39
2018-06-02T03:55:01.014Z,22.51
2018-06-02T03:56:11.110Z,22.75
2018-06-02T03:57:21.192Z,22.75
2018-06-02T03:58:31.018Z,22.97
2018-06-02T03:59:40.835Z,23.16
2018-06-02T04:00:50.922Z,23.25
2018-06-02T04:02:00.985Z,23.4
2018-06-02T04:03:11.051Z,23.52
2018-06-02T04:04:20.878Z,23.56
2018-06-02T04:05:30.704Z,23.72
2018-06-02T04:06:40.786Z,23.82
2018-06-02T04:07:50.868Z,23.79
2018-06-02T04:09:00.955Z,23.89
2018-06-02T04:10:11.062Z,23.97
2018-06-02T04:11:20.890Z,24.21
2018-06-02T04:12:30.965Z,24.3
2018-06-02T04:13:41.058Z,24.48
2018-06-02T04:14:51.138Z,24.61
2018-06-02T04:16:00.729Z,24.74
2018-06-02T04:17:10.821Z,24.83
2018-06-02T04:18:20.920Z,25.11
2018-06-02T04:19:30.756Z,25.19
2018-06-02T04:20:40.834Z,25.26
2018-06-02T04:21:50.964Z,25.32
2018-06-02T04:23:01.067Z,26
2018-06-02T04:24:10.619Z,27.19
2018-06-02T04:25:20.719Z,28.42
2018-06-02T04:26:30.801Z,29.39
2018-06-02T04:27:40.879Z,30.1
2018-06-02T04:28:50.711Z,30.82
2018-06-02T04:30:00.796Z,31.37
2018-06-02T04:31:10.616Z,31.87
2018-06-02T04:32:20.704Z,32.45
2018-06-02T04:33:30.782Z,32.75
2018-06-02T04:34:40.879Z,32.75
2018-06-02T04:35:50.717Z,32.19
2018-06-02T04:37:00.810Z,31.19
2018-06-02T04:38:10.908Z,31.8
2018-06-02T04:39:21.034Z,32.47
2018-06-02T04:40:31.118Z,33.05
2018-06-02T04:41:41.318Z,33.58
2018-06-02T04:42:51.407Z,33.87
2018-06-02T04:44:01.483Z,34.27
2018-06-02T04:45:11.355Z,34.45
2018-06-02T04:46:21.442Z,34.61
2018-06-02T04:47:31.519Z,34.81
2018-06-02T04:48:41.344Z,34.96
2018-06-02T04:49:51.437Z,35.21
2018-06-02T04:51:01.542Z,35.26
2018-06-02T04:52:11.618Z,35.31
2018-06-02T04:53:21.706Z,35.43
2018-06-02T04:54:31.791Z,35.61
2018-06-02T04:55:41.864Z,35.53
2018-06-02T04:56:51.776Z,35.47
2018-06-02T04:58:02.117Z,35.28
2018-06-02T04:59:12.194Z,35.06
2018-06-02T05:00:21.777Z,35.05
2018-06-02T05:01:31.867Z,34.84
2018-06-02T05:02:41.936Z,34.02
2018-06-02T05:03:52.015Z,33.53
2018-06-02T05:05:01.836Z,33.41
2018-06-02T05:06:11.926Z,33.69
2018-06-02T05:07:22.006Z,34.3
2018-06-02T05:08:32.144Z,34.79
2018-06-02T05:09:42.001Z,35.21
2018-06-02T05:10:52.094Z,35.5
2018-06-02T05:12:01.923Z,35.71
2018-06-02T05:13:11.737Z,35.89
2018-06-02T05:14:21.817Z,36.09
2018-06-02T05:15:31.921Z,36.15
2018-06-02T05:16:41.995Z,36.21
2018-06-02T05:17:52.075Z,36.32
2018-06-02T05:19:02.164Z,36.3
2018-06-02T05:20:12.255Z,36.33
2018-06-02T05:21:22.342Z,36.44
2018-06-02T05:22:32.423Z,36.59
2018-06-02T05:23:42.520Z,36.65
2018-06-02T05:24:52.373Z,36.81
2018-06-02T05:26:02.245Z,36.81
2018-06-02T05:27:12.339Z,36.81
2018-06-02T05:28:22.163Z,36.83
2018-06-02T05:29:32.253Z,36.89
2018-06-02T05:30:42.357Z,36.75
2018-06-02T05:31:52.183Z,36.83
2018-06-02T05:33:02.276Z,36.96
2018-06-02T05:34:12.099Z,37.05
2018-06-02T05:35:22.347Z,37.14
2018-06-02T05:36:32.587Z,37.17
2018-06-02T05:37:42.676Z,37.29
2018-06-02T05:38:52.793Z,37.18
2018-06-02T05:40:02.373Z,37.22
2018-06-02T05:41:12.190Z,37.11
2018-06-02T05:42:22.272Z,37
2018-06-02T05:43:32.412Z,37.04
2018-06-02T05:44:42.511Z,37.08
2018-06-02T05:45:52.652Z,37.24
2018-06-02T05:47:02.630Z,37.23
2018-06-02T05:48:12.720Z,37.17
2018-06-02T05:49:22.812Z,37.18
2018-06-02T05:50:32.921Z,37.15
2018-06-02T05:51:43.011Z,37.17
2018-06-02T05:52:53.103Z,37.12
2018-06-02T05:54:03.222Z,37.18
2018-06-02T05:55:13.352Z,37.26
2018-06-02T05:56:23.186Z,37.24
2018-06-02T05:57:33.280Z,37.39
2018-06-02T05:58:43.372Z,37.48
2018-06-02T05:59:53.571Z,37.59
2018-06-02T06:01:03.205Z,37.62
2018-06-02T06:02:13.021Z,37.59
2018-06-02T06:03:23.124Z,37.72
2018-06-02T06:04:33.215Z,37.8
2018-06-02T06:05:42.779Z,37.91
2018-06-02T06:06:52.930Z,37.79
2018-06-02T06:08:02.773Z,37.29
2018-06-02T06:09:12.877Z,36.75
2018-06-02T06:10:22.963Z,35.92
2018-06-02T06:11:33.063Z,35.71
2018-06-02T06:12:42.910Z,35.28
2018-06-02T06:13:52.748Z,35.26
2018-06-02T06:15:02.836Z,35.72
2018-06-02T06:16:12.663Z,35.94
2018-06-02T06:17:22.765Z,36.02
2018-06-02T06:18:32.913Z,35.49
2018-06-02T06:19:43.093Z,34.91
2018-06-02T06:20:53.178Z,34.63
2018-06-02T06:22:03.281Z,34.64
2018-06-02T06:23:13.128Z,35.04
2018-06-02T06:24:23.278Z,34.86
2018-06-02T06:25:33.368Z,34.52
2018-06-02T06:26:43.468Z,34.3
2018-06-02T06:27:53.600Z,34.11
2018-06-02T06:29:03.702Z,33.92
2018-06-02T06:30:13.797Z,33.97
2018-06-02T06:31:23.369Z,33.93
2018-06-02T06:32:33.453Z,33.77
2018-06-02T06:33:43.568Z,33.68
2018-06-02T06:34:53.674Z,33.66
2018-06-02T06:36:03.503Z,33.78
2018-06-02T06:37:13.605Z,34.11
2018-06-02T06:38:23.693Z,34.4
2018-06-02T06:39:33.517Z,34.39
2018-06-02T06:40:43.618Z,34.22
2018-06-02T06:41:53.791Z,34.41
2018-06-02T06:43:03.627Z,34.3
2018-06-02T06:44:13.449Z,34.08
2018-06-02T06:45:23.541Z,34.17
2018-06-02T06:46:33.825Z,34.05
2018-06-02T06:47:44.011Z,33.84
2018-06-02T06:48:54.121Z,33.48
2018-06-02T06:50:04.199Z,33.39
2018-06-02T06:51:14.286Z,33.28
2018-06-02T06:52:24.389Z,33.2
2018-06-02T06:53:34.024Z,33.03
2018-06-02T06:54:44.106Z,32.81
2018-06-02T06:55:54.214Z,32.49
2018-06-02T06:57:04.317Z,32.2
2018-06-02T06:58:14.160Z,31.82
2018-06-02T06:59:24.298Z,31.47
2018-06-02T07:00:34.382Z,31.3
2018-06-02T07:01:44.479Z,31.43
2018-06-02T07:02:54.584Z,31.28
2018-06-02T07:04:04.675Z,31.43
2018-06-02T07:05:14.777Z,31.43
2018-06-02T07:06:24.857Z,31.43
2018-06-02T07:07:34.958Z,31.01
2018-06-02T07:08:45.054Z,30.75
2018-06-02T07:09:54.899Z,30.51
2018-06-02T07:11:04.999Z,30.34
2018-06-02T07:12:14.832Z,30.32
2018-06-02T07:13:24.654Z,30.26
2018-06-02T07:14:34.751Z,30.21
2018-06-02T07:15:45.034Z,30.31
2018-06-02T07:16:55.119Z,30.37
2018-06-02T07:18:05.199Z,30.49
2018-06-02T07:19:15.294Z,30.71
2018-06-02T07:20:25.391Z,30.82
2018-06-02T07:21:35.471Z,30.91
2018-06-02T07:22:45.363Z,30.88
2018-06-02T07:23:55.170Z,31.12
2018-06-02T07:25:05.266Z,31.21
2018-06-02T07:26:15.373Z,31.33
2018-06-02T07:27:25.474Z,31.44
2018-06-02T07:28:35.610Z,31.49
2018-06-02T07:29:45.170Z,31.58
2018-06-02T07:30:55.030Z,31.86
2018-06-02T07:32:04.853Z,31.94
2018-06-02T07:33:14.943Z,32.13
2018-06-02T07:34:25.080Z,32.24
2018-06-02T07:35:35.180Z,32.38
2018-06-02T07:36:44.757Z,32.5
2018-06-02T07:37:54.871Z,32.61
2018-06-02T07:39:04.957Z,32.56
2018-06-02T07:40:14.775Z,32.54
2018-06-02T07:41:24.585Z,32.67
2018-06-02T07:42:34.676Z,32.64
2018-06-02T07:43:44.510Z,32.71
2018-06-02T07:44:54.591Z,32.8
2018-06-02T07:46:04.401Z,32.87
2018-06-02T07:47:14.252Z,32.86
2018-06-02T07:48:24.352Z,32.76
2018-06-02T07:49:34.188Z,32.94
2018-06-02T07:50:44.269Z,33.11
2018-06-02T07:51:54.386Z,33.21
2018-06-02T07:53:04.488Z,33.37
2018-06-02T07:54:14.614Z,33.61
2018-06-02T07:55:24.704Z,33.89
2018-06-02T07:56:34.516Z,33.93
2018-06-02T07:57:44.809Z,34.06
2018-06-02T07:58:54.898Z,33.87
2018-06-02T08:00:04.728Z,33.84
2018-06-02T08:01:14.546Z,33.81
2018-06-02T08:02:24.367Z,33.92
2018-06-02T08:03:34.493Z,34.05
2018-06-02T08:04:44.588Z,34.03
2018-06-02T08:05:54.680Z,34.08
2018-06-02T08:07:04.498Z,34.11
2018-06-02T08:08:14.591Z,34.17
2018-06-02T08:09:24.488Z,34.24
2018-06-02T08:10:34.597Z,34.32
2018-06-02T08:11:44.680Z,34.39
2018-06-02T08:12:54.771Z,34.33
2018-06-02T08:14:04.868Z,34.32
2018-06-02T08:15:15.050Z,34.34
2018-06-02T08:16:25.128Z,34.15
2018-06-02T08:17:34.968Z,34.29
2018-06-02T08:18:45.066Z,34.29
2018-06-02T08:19:54.888Z,34.24
2018-06-02T08:21:04.969Z,34.22
2018-06-02T08:22:15.071Z,34.3
2018-06-02T08:23:24.911Z,34.37
2018-06-02T08:24:35.021Z,34.32
2018-06-02T08:25:44.846Z,34.43
2018-06-02T08:26:55.004Z,34.37
2018-06-02T08:28:05.097Z,34.37
2018-06-02T08:29:15.193Z,34.33
2018-06-02T08:30:25.005Z,34.33
2018-06-02T08:31:34.832Z,34.33
2018-06-02T08:32:44.977Z,34.26
2018-06-02T08:33:54.820Z,34.24
2018-06-02T08:35:04.919Z,34.33
2018-06-02T08:36:15.002Z,34.21
2018-06-02T08:37:25.114Z,34.19
2018-06-02T08:38:35.218Z,34.15
2018-06-02T08:39:45.305Z,34.03
2018-06-02T08:40:55.132Z,34.06
2018-06-02T08:42:05.277Z,34.06
2018-06-02T08:43:15.381Z,33.93
2018-06-02T08:44:25.485Z,33.69
2018-06-02T08:45:35.623Z,33.65
2018-06-02T08:46:45.705Z,33.48
2018-06-02T08:47:55.808Z,33.39
2018-06-02T08:49:05.901Z,33.28
2018-06-02T08:50:16.045Z,33.17
2018-06-02T08:51:25.875Z,32.99
2018-06-02T08:52:35.961Z,32.91
2018-06-02T08:53:46.051Z,32.75
2018-06-02T08:54:56.079Z,32.56
2018-06-02T08:56:05.782Z,32.53
2018-06-02T08:57:15.899Z,32.39
2018-06-02T08:58:25.994Z,32.3
2018-06-02T08:59:36.113Z,32.12
2018-06-02T09:00:45.937Z,32.01
2018-06-02T09:01:56.018Z,31.94
2018-06-02T09:03:06.101Z,31.91
2018-06-02T09:04:15.718Z,31.88
2018-06-02T09:05:25.943Z,31.9
2018-06-02T09:06:36.077Z,31.78
2018-06-02T09:07:46.257Z,31.78
2018-06-02T09:08:56.358Z,31.8
2018-06-02T09:10:06.454Z,31.82
2018-06-02T09:11:16.534Z,31.77
2018-06-02T09:12:26.355Z,31.9
2018-06-02T09:13:36.175Z,31.93
2018-06-02T09:14:46.022Z,32.03
2018-06-02T09:15:56.106Z,32.09
2018-06-02T09:17:05.942Z,32.17
2018-06-02T09:18:16.104Z,32.12
2018-06-02T09:19:26.188Z,32.17
2018-06-02T09:20:36.287Z,32.23
2018-06-02T09:21:46.532Z,32.3
2018-06-02T09:22:56.768Z,32.47
2018-06-02T09:24:06.867Z,32.69
2018-06-02T09:25:16.441Z,32.87
2018-06-02T09:26:26.530Z,33.02
2018-06-02T09:27:36.636Z,33.11
2018-06-02T09:28:46.748Z,33.21
2018-06-02T09:29:56.852Z,33.2
2018-06-02T09:31:06.676Z,33.12
2018-06-02T09:32:16.776Z,33.17
2018-06-02T09:33:26.605Z,33.23
2018-06-02T09:34:36.451Z,33.31
2018-06-02T09:35:46.550Z,33.32
2018-06-02T09:36:56.639Z,33.47
2018-06-02T09:38:06.748Z,33.61
2018-06-02T09:39:16.848Z,33.85
2018-06-02T09:40:26.666Z,34.02
2018-06-02T09:41:36.229Z,34.02
2018-06-02T09:42:46.329Z,34.21
2018-06-02T09:43:56.159Z,34.52
2018-06-02T09:45:06.244Z,34.75
2018-06-02T09:46:16.374Z,34.9
2018-06-02T09:47:26.479Z,34.96
2018-06-02T09:48:36.583Z,34.63
2018-06-02T09:49:46.691Z,34.49
2018-06-02T09:50:56.789Z,34.27
2018-06-02T09:52:06.915Z,34.33
2018-06-02T09:53:17.015Z,34.29
2018-06-02T09:54:26.896Z,34.17
2018-06-02T09:55:36.982Z,33.9
2018-06-02T09:56:47.069Z,33.87
2018-06-02T09:57:57.180Z,33.77
2018-06-02T09:59:07.264Z,33.74
2018-06-02T10:00:17.362Z,33.74
2018-06-02T10:01:27.446Z,33.73
2018-06-02T10:02:37.538Z,33.71
2018-06-02T10:03:47.634Z,33.87
2018-06-02T10:04:57.738Z,33.84
2018-06-02T10:06:07.819Z,33.75
2018-06-02T10:07:17.655Z,33.65
2018-06-02T10:08:27.751Z,33.58
2018-06-02T10:09:37.584Z,33.53
2018-06-02T10:10:47.425Z,33.5
2018-06-02T10:11:57.521Z,33.4
2018-06-02T10:13:07.350Z,33.37
2018-06-02T10:14:17.437Z,33.34
2018-06-02T10:15:27.546Z,33.31
2018-06-02T10:16:37.673Z,33.29
2018-06-02T10:17:47.780Z,33.28
2018-06-02T10:18:57.608Z,33.36
2018-06-02T10:20:07.431Z,33.36
2018-06-02T10:21:17.543Z,33.36
2018-06-02T10:22:27.363Z,33.47
2018-06-02T10:23:37.469Z,33.58
2018-06-02T10:24:47.312Z,33.47
2018-06-02T10:25:57.423Z,33.2
2018-06-02T10:27:07.250Z,33.01
2018-06-02T10:28:17.082Z,32.84
2018-06-02T10:29:26.709Z,32.91
2018-06-02T10:30:36.586Z,32.81
2018-06-02T10:31:46.699Z,32.69
2018-06-02T10:32:56.788Z,32.83
2018-06-02T10:34:06.881Z,32.96
2018-06-02T10:35:16.969Z,33.06
2018-06-02T10:36:27.166Z,33.05
2018-06-02T10:37:37.259Z,33.05
2018-06-02T10:38:47.388Z,33.06
2018-06-02T10:39:57.493Z,33.03
2018-06-02T10:41:07.600Z,33.05
2018-06-02T10:42:17.717Z,33.12
2018-06-02T10:43:27.542Z,33.23
2018-06-02T10:44:37.218Z,33.16
2018-06-02T10:45:47.543Z,33.23
2018-06-02T10:46:57.680Z,33.37
2018-06-02T10:48:07.507Z,33.44
2018-06-02T10:49:17.591Z,33.53
2018-06-02T10:50:27.698Z,33.36
2018-06-02T10:51:37.537Z,33.28
2018-06-02T10:52:47.379Z,33.17
2018-06-02T10:53:57.479Z,33.13
2018-06-02T10:55:07.309Z,32.89
2018-06-02T10:56:17.427Z,32.67
2018-06-02T10:57:27.527Z,32.71
2018-06-02T10:58:37.634Z,32.99
2018-06-02T10:59:47.471Z,33.18
2018-06-02T11:00:57.592Z,33.4
2018-06-02T11:02:07.684Z,33.66
2018-06-02T11:03:17.775Z,33.85
2018-06-02T11:04:27.401Z,34.03
2018-06-02T11:05:37.501Z,34.3
2018-06-02T11:06:47.600Z,34.48
2018-06-02T11:07:57.706Z,34.61
2018-06-02T11:09:08.010Z,34.36
2018-06-02T11:10:18.219Z,34.36
2018-06-02T11:11:28.070Z,34.45
2018-06-02T11:12:38.178Z,34.72
2018-06-02T11:13:48.285Z,35.15
2018-06-02T11:14:58.545Z,35.46
2018-06-02T11:16:08.883Z,35.65
2018-06-02T11:17:18.733Z,35.64
2018-06-02T11:18:28.872Z,35.6
2018-06-02T11:19:39.122Z,35.76
2018-06-02T11:20:49.244Z,35.94
2018-06-02T11:21:59.344Z,35.92
2018-06-02T11:23:09.442Z,35.89
2018-06-02T11:24:19.538Z,35.77
2018-06-02T11:25:29.695Z,35.72
2018-06-02T11:26:39.814Z,35.82
2018-06-02T11:27:49.667Z,35.77
2018-06-02T11:28:59.778Z,35.6
2018-06-02T11:30:09.602Z,35.4
2018-06-02T11:31:19.736Z,35.12
2018-06-02T11:32:29.869Z,35.09
2018-06-02T11:33:39.767Z,35.15
2018-06-02T11:34:49.898Z,35.16
2018-06-02T11:35:59.851Z,35.23
2018-06-02T11:37:09.979Z,35.02
2018-06-02T11:38:19.561Z,34.81
2018-06-02T11:39:29.411Z,34.56
2018-06-02T11:40:39.498Z,34.4
2018-06-02T11:41:49.334Z,34.14
2018-06-02T11:42:59.177Z,34.02
2018-06-02T11:44:09.445Z,33.73
2018-06-02T11:45:19.884Z,33.59
2018-06-02T11:46:29.970Z,33.43
2018-06-02T11:47:40.089Z,33.28
2018-06-02T11:48:49.913Z,33.26
2018-06-02T11:49:59.749Z,33.36
2018-06-02T11:51:09.914Z,33.39
2018-06-02T11:52:20.006Z,33.53
2018-06-02T11:53:30.090Z,33.53
2018-06-02T11:54:39.910Z,33.53
2018-06-02T11:55:50.020Z,33.66
2018-06-02T11:57:00.115Z,33.69
2018-06-02T11:58:10.212Z,33.71
2018-06-02T11:59:20.293Z,33.75
2018-06-02T12:00:30.400Z,33.74
2018-06-02T12:01:40.531Z,33.71
2018-06-02T12:02:50.625Z,33.71
2018-06-02T12:04:00.458Z,33.61
2018-06-02T12:05:10.560Z,33.52
2018-06-02T12:06:20.667Z,33.44
2018-06-02T12:07:30.759Z,33.4
2018-06-02T12:08:40.855Z,33.29
2018-06-02T12:09:50.947Z,33.44
2018-06-02T12:11:01.053Z,33.39
2018-06-02T12:12:10.618Z,33.34
2018-06-02T12:13:20.431Z,33.41
2018-06-02T12:14:30.534Z,33.37
2018-06-02T12:15:40.628Z,33.34
2018-06-02T12:16:50.747Z,33.36
2018-06-02T12:18:00.833Z,33.26
2018-06-02T12:19:10.913Z,33.17
2018-06-02T12:20:21.004Z,33.23
2018-06-02T12:21:30.831Z,33.17
2018-06-02T12:22:40.410Z,33.02
2018-06-02T12:23:50.301Z,33.02
2018-06-02T12:25:00.410Z,32.91
2018-06-02T12:26:10.532Z,32.89
2018-06-02T12:27:20.630Z,32.87
2018-06-02T12:28:30.814Z,32.86
2018-06-02T12:29:40.659Z,32.94
2018-06-02T12:30:50.484Z,32.84
2018-06-02T12:32:00.347Z,32.9
2018-06-02T12:33:10.446Z,32.96
2018-06-02T12:34:20.549Z,33.08
2018-06-02T12:35:30.691Z,33.17
2018-06-02T12:36:40.800Z,33.16
2018-06-02T12:37:50.909Z,33.2
2018-06-02T12:39:00.732Z,33.31
2018-06-02T12:40:11.005Z,33.36
2018-06-02T12:41:21.196Z,33.4
2018-06-02T12:42:31.307Z,33.59
2018-06-02T12:43:41.405Z,33.58
2018-06-02T12:44:51.216Z,33.58
2018-06-02T12:46:01.311Z,33.41
2018-06-02T12:47:11.414Z,33.12
2018-06-02T12:48:21.512Z,32.86
2018-06-02T12:49:31.605Z,32.68
2018-06-02T12:50:41.710Z,32.46
2018-06-02T12:51:51.836Z,32.24
2018-06-02T12:53:01.673Z,32.23
2018-06-02T12:54:11.508Z,32.06
2018-06-02T12:55:21.627Z,31.93
2018-06-02T12:56:31.727Z,31.88
2018-06-02T12:57:41.817Z,31.87
2018-06-02T12:58:51.970Z,31.87
2018-06-02T13:00:02.081Z,31.94
2018-06-02T13:01:12.259Z,31.98
2018-06-02T13:02:22.351Z,32.01
2018-06-02T13:03:32.172Z,32.06
2018-06-02T13:04:42.318Z,32.05
2018-06-02T13:05:52.409Z,32.15
2018-06-02T13:07:02.245Z,32.25
2018-06-02T13:08:12.342Z,32.37
2018-06-02T13:09:22.187Z,32.46
2018-06-02T13:10:32.284Z,32.57
2018-06-02T13:11:42.400Z,32.69
2018-06-02T13:12:52.481Z,32.74
2018-06-02T13:14:02.588Z,32.69
2018-06-02T13:15:12.685Z,32.8
2018-06-02T13:16:22.782Z,32.76
2018-06-02T13:17:32.876Z,32.86
2018-06-02T13:18:42.975Z,32.93
2018-06-02T13:19:52.537Z,32.87
2018-06-02T13:21:02.635Z,32.96
2018-06-02T13:22:12.530Z,32.94
2018-06-02T13:23:22.648Z,33.03
2018-06-02T13:24:33.051Z,33.05
2018-06-02T13:25:43.150Z,33.02
2018-06-02T13:26:53.013Z,33.13
2018-06-02T13:28:02.618Z,33.21
2018-06-02T13:29:12.725Z,33.23
2018-06-02T13:30:22.796Z,33.21
2018-06-02T13:31:32.906Z,33.2
2018-06-02T13:32:42.978Z,33.36
2018-06-02T13:33:52.821Z,33.39
2018-06-02T13:35:02.913Z,33.36
2018-06-02T13:36:13.007Z,33.36
2018-06-02T13:37:22.841Z,33.36
2018-06-02T13:38:32.970Z,33.32
2018-06-02T13:39:43.069Z,33.24
2018-06-02T13:40:53.168Z,33.17
2018-06-02T13:42:03.294Z,33.21
2018-06-02T13:43:13.531Z,33.17
2018-06-02T13:44:23.103Z,33.02
2018-06-02T13:45:33.217Z,32.98
2018-06-02T13:46:43.385Z,32.94
2018-06-02T13:47:53.530Z,32.91
2018-06-02T13:49:03.680Z,32.86
2018-06-02T13:50:13.802Z,32.76
2018-06-02T13:51:23.832Z,32.68
2018-06-02T13:52:34.165Z,32.74
2018-06-02T13:53:44.293Z,32.71
2018-06-02T13:54:54.425Z,32.67
2018-06-02T13:56:04.541Z,32.61
2018-06-02T13:57:14.713Z,32.68
2018-06-02T13:58:24.876Z,32.65
2018-06-02T13:59:35.039Z,32.64
2018-06-02T14:00:45.138Z,32.53
2018-06-02T14:01:55.286Z,32.49
2018-06-02T14:03:05.520Z,32.38
2018-06-02T14:04:15.644Z,32.38
2018-06-02T14:05:25.747Z,32.35
2018-06-02T14:06:35.909Z,32.39
2018-06-02T14:07:45.760Z,32.35
2018-06-02T14:08:55.892Z,32.28
2018-06-02T14:10:06.023Z,32.19
2018-06-02T14:11:16.129Z,32.2
2018-06-02T14:12:26.254Z,32.19
2018-06-02T14:13:36.448Z,32.16
2018-06-02T14:14:46.591Z,32.25
2018-06-02T14:15:56.496Z,32.38
2018-06-02T14:17:06.346Z,32.45
2018-06-02T14:18:16.196Z,32.37
2018-06-02T14:19:26.312Z,32.52
2018-06-02T14:20:36.474Z,32.5
2018-06-02T14:21:46.596Z,32.53
2018-06-02T14:22:56.718Z,32.5
2018-06-02T14:24:06.833Z,32.46
2018-06-02T14:25:16.751Z,32.57
2018-06-02T14:26:26.698Z,32.46
2018-06-02T14:27:36.829Z,32.46
2018-06-02T14:28:46.956Z,32.38
2018-06-02T14:29:57.081Z,32.3
2018-06-02T14:31:07.205Z,32.17
2018-06-02T14:32:17.447Z,32.09
2018-06-02T14:33:27.351Z,31.97
2018-06-02T14:34:37.483Z,31.87
2018-06-02T14:35:47.617Z,31.77
2018-06-02T14:36:57.752Z,31.53
2018-06-02T14:38:08.122Z,31.4
2018-06-02T14:39:18.355Z,31.36
2018-06-02T14:40:28.509Z,31.18
2018-06-02T14:41:38.616Z,31.13
2018-06-02T14:42:48.749Z,30.86
2018-06-02T14:43:58.917Z,30.85
2018-06-02T14:45:09.087Z,30.82
2018-06-02T14:46:19.201Z,30.77
2018-06-02T14:47:29.350Z,30.84
2018-06-02T14:48:39.487Z,30.94
2018-06-02T14:49:49.701Z,30.94
2018-06-02T14:50:59.855Z,31.06
2018-06-02T14:52:09.977Z,31.12
2018-06-02T14:53:20.166Z,31.15
2018-06-02T14:54:30.307Z,31.33
2018-06-02T14:55:40.490Z,31.43
2018-06-02T14:56:50.780Z,31.4
2018-06-02T14:58:01.163Z,31.55
2018-06-02T14:59:11.268Z,31.72
2018-06-02T15:00:21.119Z,32
2018-06-02T15:01:31.224Z,32.25
2018-06-02T15:02:41.347Z,32.43
2018-06-02T15:03:51.493Z,32.62
2018-06-02T15:05:01.736Z,32.69
2018-06-02T15:06:11.888Z,32.65
2018-06-02T15:07:22.050Z,32.39
2018-06-02T15:08:32.180Z,32.12
2018-06-02T15:09:42.395Z,31.93
2018-06-02T15:10:52.286Z,31.78
2018-06-02T15:12:02.394Z,31.72
2018-06-02T15:13:12.530Z,31.65
2018-06-02T15:14:22.362Z,31.49
2018-06-02T15:15:32.476Z,31.45
2018-06-02T15:16:42.576Z,31.43
2018-06-02T15:17:52.461Z,31.43
2018-06-02T15:19:02.366Z,31.38
2018-06-02T15:20:12.483Z,31.38
2018-06-02T15:21:22.577Z,31.43
2018-06-02T15:22:32.684Z,31.41
2018-06-02T15:23:42.794Z,31.45
2018-06-02T15:24:52.900Z,31.53
2018-06-02T15:26:02.857Z,31.37
2018-06-02T15:27:12.954Z,31.43
2018-06-02T15:28:22.867Z,31.4
2018-06-02T15:29:33.005Z,31.41
2018-06-02T15:30:42.856Z,31.52
2018-06-02T15:31:53.113Z,31.72
2018-06-02T15:33:03.211Z,31.78
2018-06-02T15:34:13.067Z,31.86
2018-06-02T15:35:23.165Z,32.05
2018-06-02T15:36:33.316Z,32.15